Extended Streamflow Prediction
Issued by NWS Lower Mississippi RFC

Home | Current Version | Previous Version | Text Only | Print | Product List | Glossary On
Versions: 1 2 3 4 5 6 7 8 9 10 11 12 13 14 15 16 17 18 19 20 21 22 23 24 25 26 27 28 29 30 31 32 33 34 35 36 37 38 39 40 41 42 43 44 45 46 47 48 49 50
053
FGUS64 KORN 281637
ESPORN

EXTENDED STREAMFLOW PREDICTION
NATIONAL WEATHER SERVICE RIVER FORECAST CENTER, SLIDELL, LA
1036 AM CST TUE FEB 28 2017

   DATE   CPGM7 CIRI2 NMDM7 TPTT1 CRTM7 OSGA4 MEMT1 TRPM6 HEEA4
03-01-17   19.6  21.9   9.3  11.9  11.9   4.3   4.6  15.6  11.9
03-02-17   20.4  22.8  10.4  13.0  12.9   4.8   4.9  15.5  11.5
03-03-17   21.2  24.6  12.1  14.5  14.2   6.1   5.5  16.0  11.8
03-04-17   22.0  27.0  14.6  16.7  16.1   7.7   6.8  17.0  12.4
03-05-17   22.4  28.6  16.4  18.7  18.2  10.2   8.8  18.6  13.7
03-06-17   22.7  30.3  17.9  20.1  19.6  12.0  11.0  20.8  15.6
03-07-17   22.9  31.7  19.5  21.6  21.0  13.5  12.4  22.4  17.4
03-08-17   23.3  32.8  20.7  22.9  22.2  15.1  14.0  23.8  18.8
03-09-17   23.8  33.6  21.6  23.8  23.2  16.3  15.2  25.1  20.1
03-10-17   24.2  34.2  22.3  24.5  23.9  17.2  16.3  26.2  21.3
03-11-17   24.6  34.1  22.5  24.9  24.4  17.8  17.0  27.0  22.2
03-12-17   24.9  32.5  21.8  24.5  24.2  18.1  17.5  27.6  22.8
03-13-17   25.0  30.0  19.7  22.8  22.9  17.4  17.4  27.8  23.2
03-14-17   25.0  28.0  17.5  20.5  20.7  15.3  16.0  27.0  23.0
03-15-17   24.9  26.8  16.0  19.0  19.1  13.1  13.7  25.0  21.6
03-16-17   24.6  25.8  15.0  17.9  18.0  11.6  12.0  23.1  19.6
03-17-17   24.0  24.7  14.0  17.1  17.1  10.6  10.9  21.8  18.2
03-18-17   23.3  23.9  13.1  16.2  16.3   9.7  10.0  21.0  17.2
03-19-17   22.4  23.0  12.3  15.4  15.5   8.8   9.1  20.1  16.4
03-20-17   21.5  22.1  11.5  14.6  14.8   7.9   8.4  19.3  15.6
03-21-17   20.7  21.4  10.7  13.8  14.0   7.1   7.6  18.6  14.9
03-22-17   20.1  20.7  10.1  13.2  13.4   6.4   6.8  17.9  14.3
03-23-17   19.5  20.0   9.6  12.7  12.9   5.7   6.2  17.2  13.6
03-24-17   19.0  19.4   9.2  12.3  12.5   5.3   5.6  16.7  13.0
03-25-17   18.4  18.9   8.9  12.1  12.2   4.9   5.2  16.3  12.6
03-26-17   17.6  18.3   8.8  11.9  12.0   4.6   4.9  15.9  12.2
03-27-17   17.0  17.9   8.7  11.8  11.9   4.5   4.8  15.7  12.0
03-28-17   16.3  17.4   8.7  11.8  11.9   4.4   4.6  15.6  11.8

   DATE   ARSA4 GEEM6 VCKM6 NTZM6 RRLL1 BTRL1 DONL1 RRVL1 NORL1
03-01-17   11.9  23.1  18.5  27.2  31.2  16.8  10.2   7.6   5.3
03-02-17   11.6  22.7  18.1  26.5  30.6  16.2   9.8   7.4   5.1
03-03-17   11.5  22.5  17.7  26.1  30.0  15.6   9.5   7.2   4.9
03-04-17   11.7  22.6  17.5  25.7  29.6  15.1   9.0   6.9   4.7
03-05-17   12.1  22.9  17.6  25.5  29.4  14.9   8.9   6.8   4.6
03-06-17   12.8  23.4  17.9  25.6  29.3  14.7   9.0   6.9   4.6
03-07-17   13.9  24.3  18.4  25.9  29.3  14.7   8.9   6.8   4.6
03-08-17   15.3  25.5  19.2  26.4  29.6  14.8   8.9   6.8   4.8
03-09-17   16.6  26.8  20.4  27.2  29.9  15.0   9.0   6.8   5.0
03-10-17   17.9  28.0  21.6  28.3  30.7  15.5   9.3   7.0   4.9
03-11-17   18.9  29.1  22.8  29.4  31.7  16.4   9.7   7.2   5.0
03-12-17   19.8  30.0  23.8  30.5  32.8  17.5  10.2   7.5   5.2
03-13-17   20.4  30.8  24.6  31.5  33.9  18.5  10.9   8.0   5.5
03-14-17   20.7  31.2  25.4  32.3  34.8  19.4  11.7   8.5   5.8
03-15-17   20.5  31.4  25.8  33.1  35.6  20.2  12.3   8.9   6.1
03-16-17   19.6  30.8  25.9  33.5  36.3  20.9  12.8   9.3   6.5
03-17-17   18.1  29.6  25.4  33.6  36.6  21.5  13.2   9.6   6.7
03-18-17   16.7  28.1  24.3  33.0  36.7  21.7  13.5   9.9   6.9
03-19-17   15.8  27.0  22.9  32.0  36.2  21.5  13.5  10.0   7.0
03-20-17   15.0  26.3  21.9  30.7  35.2  20.8  13.2   9.9   7.1
03-21-17   14.3  25.6  21.2  29.7  34.0  19.6  12.5   9.6   6.9
03-22-17   13.6  24.9  20.4  29.0  33.0  18.5  11.7   9.0   6.6
03-23-17   13.0  24.3  19.8  28.3  32.4  17.8  11.1   8.5   6.1
03-24-17   12.3  23.7  19.2  27.8  31.7  17.2  10.6   8.1   5.8
03-25-17   11.8  23.1  18.6  27.2  31.2  16.7  10.2   7.8   5.6
03-26-17   11.3  22.6  18.1  26.6  30.6  16.1   9.8   7.5   5.4
03-27-17   11.0  22.3  17.7  26.1  30.1  15.6   9.5   7.3   5.2
03-28-17   10.8  22.0  17.4  25.7  29.6  15.1   9.1   7.0   5.0

NOTE: STAGE FORECASTS ARE BASED ON FUTURE RAINFALL COVERING
THE NEXT 48 HOURS.

END ORN


$$





USA.gov is the U.S. government's official web portal to all federal, state and local government web resources and services.